createdAt,value
2017-05-22T00:00:14.791Z,71.33
2017-05-22T00:01:28.406Z,71.42
2017-05-22T00:02:42.962Z,71.33
2017-05-22T00:03:57.219Z,71.52
2017-05-22T00:05:10.805Z,71.52
2017-05-22T00:06:24.708Z,71.42
2017-05-22T00:07:38.619Z,71.42
2017-05-22T00:08:52.972Z,71.42
2017-05-22T00:10:07.225Z,71.62
2017-05-22T00:11:21.111Z,71.62
2017-05-22T00:12:34.754Z,72
2017-05-22T00:13:48.650Z,71.91
2017-05-22T00:15:02.331Z,72.29
2017-05-22T00:16:16.821Z,72.38
2017-05-22T00:17:30.719Z,72.67
2017-05-22T00:18:44.312Z,72.58
2017-05-22T00:19:58.243Z,72.48
2017-05-22T00:21:12.789Z,72.25
2017-05-22T00:22:26.667Z,72.73
2017-05-22T00:23:40.738Z,72.58
2017-05-22T00:24:54.410Z,72.38
2017-05-22T00:26:08.311Z,72.25
2017-05-22T00:27:22.243Z,72.25
2017-05-22T00:28:36.079Z,72.67
2017-05-22T00:29:49.671Z,72.58
2017-05-22T00:31:03.650Z,72.38
2017-05-22T00:32:17.513Z,72.29
2017-05-22T00:33:31.431Z,72.16
2017-05-22T00:34:45.635Z,72.54
2017-05-22T00:35:59.197Z,72.63
2017-05-22T00:37:27.569Z,72.63
2017-05-22T00:38:41.132Z,72.83
2017-05-22T00:39:54.716Z,73.11
2017-05-22T00:41:08.569Z,73.11
2017-05-22T00:42:22.260Z,72.63
2017-05-22T00:43:36.186Z,72.92
2017-05-22T00:44:49.768Z,73.11
2017-05-22T00:46:03.358Z,73.11
2017-05-22T00:47:17.353Z,73.11
2017-05-22T00:48:30.906Z,72.25
2017-05-22T00:49:44.463Z,72.54
2017-05-22T00:50:58.079Z,72.92
2017-05-22T00:52:11.638Z,73.02
2017-05-22T00:53:26.224Z,73.02
2017-05-22T00:54:40.441Z,73.11
2017-05-22T00:55:54.077Z,73.02
2017-05-22T00:57:07.918Z,72.73
2017-05-22T00:58:21.569Z,72.63
2017-05-22T00:59:35.402Z,73.02
2017-05-22T01:00:49.021Z,72.25
2017-05-22T01:02:03.211Z,72.63
2017-05-22T01:03:17.181Z,72.34
2017-05-22T01:04:31.166Z,72.63
2017-05-22T01:05:45.091Z,72.63
2017-05-22T01:06:58.817Z,72.54
2017-05-22T01:08:12.387Z,72.73
2017-05-22T01:09:26.122Z,72.25
2017-05-22T01:10:40.018Z,72.34
2017-05-22T01:11:54.213Z,72.54
2017-05-22T01:13:07.891Z,72.16
2017-05-22T01:14:21.475Z,72.63
2017-05-22T01:15:35.023Z,72.44
2017-05-22T01:16:48.983Z,72.44
2017-05-22T01:18:02.880Z,72.54
2017-05-22T01:19:16.554Z,72.16
2017-05-22T01:20:30.116Z,72.44
2017-05-22T01:21:44.111Z,72.16
2017-05-22T01:22:57.646Z,72.25
2017-05-22T01:24:11.639Z,72.54
2017-05-22T01:25:25.201Z,72.73
2017-05-22T01:26:38.782Z,72.63
2017-05-22T01:27:53.481Z,72.63
2017-05-22T01:29:07.079Z,72.44
2017-05-22T01:30:21.007Z,72.25
2017-05-22T01:31:34.919Z,73.02
2017-05-22T01:32:48.547Z,73.02
2017-05-22T01:34:02.483Z,72.63
2017-05-22T01:35:16.342Z,73.02
2017-05-22T01:36:30.581Z,73.02
2017-05-22T01:37:44.116Z,73.21
2017-05-22T01:38:57.694Z,73.3
2017-05-22T01:40:11.702Z,73.3
2017-05-22T01:41:25.619Z,73.4
2017-05-22T01:42:39.578Z,73.88
2017-05-22T01:43:53.494Z,73.3
2017-05-22T01:45:07.097Z,73.5
2017-05-22T01:46:21.085Z,73.79
2017-05-22T01:47:34.737Z,73.79
2017-05-22T01:48:48.822Z,73.88
2017-05-22T01:50:02.386Z,74.16
2017-05-22T01:51:16.229Z,74.07
2017-05-22T01:52:29.824Z,74.26
2017-05-22T01:53:43.708Z,73.75
2017-05-22T01:54:57.626Z,74.04
2017-05-22T01:56:11.987Z,74.04
2017-05-22T01:57:25.721Z,74.22
2017-05-22T01:58:39.319Z,74.22
2017-05-22T01:59:52.901Z,74.04
2017-05-22T02:01:07.127Z,74.04
2017-05-22T02:02:20.814Z,74.51
2017-05-22T02:03:34.736Z,74.61
2017-05-22T02:04:48.985Z,74.8
2017-05-22T02:06:02.604Z,74.51
2017-05-22T02:07:16.813Z,74.7
2017-05-22T02:08:30.997Z,74.61
2017-05-22T02:09:44.524Z,74.61
2017-05-22T02:10:58.194Z,74.61
2017-05-22T02:12:12.120Z,74.7
2017-05-22T02:13:26.053Z,74.61
2017-05-22T02:14:39.703Z,74.61
2017-05-22T02:15:53.275Z,74.41
2017-05-22T02:17:06.833Z,74.61
2017-05-22T02:18:20.813Z,74.9
2017-05-22T02:19:35.346Z,74.61
2017-05-22T02:20:48.916Z,74.61
2017-05-22T02:22:02.904Z,74.99
2017-05-22T02:23:23.494Z,75.09
2017-05-22T02:24:37.768Z,74.7
2017-05-22T02:25:51.660Z,75.27
2017-05-22T02:27:05.307Z,75.09
2017-05-22T02:28:18.944Z,75.09
2017-05-22T02:29:32.832Z,74.99
2017-05-22T02:30:46.754Z,74.8
2017-05-22T02:32:00.574Z,74.99
2017-05-22T02:33:14.510Z,75.37
2017-05-22T02:34:28.870Z,75.27
2017-05-22T02:35:43.096Z,75.18
2017-05-22T02:36:56.964Z,75.47
2017-05-22T02:38:10.847Z,75.27
2017-05-22T02:39:24.500Z,75.37
2017-05-22T02:40:38.218Z,75.27
2017-05-22T02:41:51.866Z,75.37
2017-05-22T02:43:05.479Z,75.18
2017-05-22T02:44:19.368Z,75.18
2017-05-22T02:45:32.953Z,75.85
2017-05-22T02:46:46.640Z,74.99
2017-05-22T02:48:00.596Z,75.09
2017-05-22T02:49:14.469Z,76.04
2017-05-22T02:50:29.079Z,75.95
2017-05-22T02:51:42.638Z,75.66
2017-05-22T02:52:57.206Z,75.95
2017-05-22T02:54:10.819Z,75.09
2017-05-22T02:55:24.724Z,75.27
2017-05-22T02:56:38.829Z,74.7
2017-05-22T02:57:52.783Z,75.37
2017-05-22T02:59:07.064Z,75.09
2017-05-22T03:00:20.669Z,75.09
2017-05-22T03:01:34.347Z,75.37
2017-05-22T03:02:48.640Z,75.37
2017-05-22T03:04:02.324Z,74.99
2017-05-22T03:05:15.998Z,75.18
2017-05-22T03:06:29.770Z,74.41
2017-05-22T03:07:43.556Z,74.04
2017-05-22T03:08:57.503Z,74.9
2017-05-22T03:10:12.420Z,74.22
2017-05-22T03:11:26.357Z,74.51
2017-05-22T03:12:40.639Z,74.32
2017-05-22T03:13:54.643Z,74.04
2017-05-22T03:15:08.620Z,74.41
2017-05-22T03:16:22.509Z,74.04
2017-05-22T03:17:36.076Z,74.41
2017-05-22T03:18:49.793Z,74.61
2017-05-22T03:20:03.721Z,74.22
2017-05-22T03:21:18.325Z,74.41
2017-05-22T03:22:31.900Z,74.51
2017-05-22T03:23:45.796Z,74.9
2017-05-22T03:24:59.856Z,74.41
2017-05-22T03:26:13.788Z,74.04
2017-05-22T03:27:28.039Z,73.94
2017-05-22T03:28:41.665Z,73.84
2017-05-22T03:29:55.471Z,73.46
2017-05-22T03:31:09.029Z,73.75
2017-05-22T03:32:22.736Z,73.36
2017-05-22T03:33:36.683Z,74.32
2017-05-22T03:34:50.252Z,73.65
2017-05-22T03:36:03.852Z,73.84
2017-05-22T03:37:17.454Z,73.65
2017-05-22T03:38:30.993Z,73.46
2017-05-22T03:39:45.092Z,73.17
2017-05-22T03:40:58.759Z,73.36
2017-05-22T03:42:12.357Z,72.88
2017-05-22T03:43:25.942Z,72.98
2017-05-22T03:44:39.938Z,73.46
2017-05-22T03:45:54.659Z,73.36
2017-05-22T03:47:08.237Z,73.36
2017-05-22T03:48:22.118Z,72.98
2017-05-22T03:49:36.020Z,72.98
2017-05-22T03:50:49.587Z,73.17
2017-05-22T03:52:03.509Z,73.17
2017-05-22T03:53:17.765Z,73.75
2017-05-22T03:54:31.360Z,73.17
2017-05-22T03:55:45.239Z,73.08
2017-05-22T03:56:59.288Z,73.75
2017-05-22T03:58:13.489Z,73.3
2017-05-22T03:59:27.407Z,73.84
2017-05-22T04:00:41.164Z,73.08
2017-05-22T04:01:54.742Z,73.08
2017-05-22T04:03:08.328Z,72.5
2017-05-22T04:04:22.230Z,74.04
2017-05-22T04:05:36.201Z,74.36
2017-05-22T04:06:50.515Z,73.79
2017-05-22T04:08:04.216Z,73.08
2017-05-22T04:09:18.621Z,73.21
2017-05-22T04:10:32.847Z,72.16
2017-05-22T04:11:46.831Z,72.34
2017-05-22T04:13:00.709Z,72.06
2017-05-22T04:14:14.301Z,71.97
2017-05-22T04:15:27.918Z,72.06
2017-05-22T04:16:41.849Z,71.48
2017-05-22T04:17:55.535Z,71.2
2017-05-22T04:19:09.723Z,71.58
2017-05-22T04:20:23.706Z,71.68
2017-05-22T04:21:37.807Z,71.58
2017-05-22T04:22:52.321Z,71.48
2017-05-22T04:24:06.067Z,71.48
2017-05-22T04:25:20.538Z,71.58
2017-05-22T04:26:37.153Z,71.48
2017-05-22T04:27:52.941Z,71.3
2017-05-22T04:29:07.700Z,71.2
2017-05-22T04:30:21.381Z,71.87
2017-05-22T04:31:35.436Z,71.58
2017-05-22T04:32:49.795Z,71.39
2017-05-22T04:34:03.930Z,70.91
2017-05-22T04:35:19.171Z,71.39
2017-05-22T04:36:32.961Z,71.2
2017-05-22T04:37:47.233Z,70.91
2017-05-22T04:39:00.977Z,71.01
2017-05-22T04:40:15.217Z,70.43
2017-05-22T04:41:28.838Z,70.18
2017-05-22T04:42:42.431Z,70.18
2017-05-22T04:43:56.088Z,69.89
2017-05-22T04:45:10.063Z,69.67
2017-05-22T04:46:23.694Z,69.8
2017-05-22T04:47:37.589Z,69
2017-05-22T04:48:51.200Z,69
2017-05-22T04:50:04.807Z,69.13
2017-05-22T04:51:18.434Z,68.65
2017-05-22T04:52:32.102Z,68.55
2017-05-22T04:53:46.045Z,68.17
2017-05-22T04:55:00.055Z,68.27
2017-05-22T04:56:14.320Z,68.01
2017-05-22T04:57:28.261Z,67.6
2017-05-22T04:58:42.268Z,67.54
2017-05-22T04:59:56.402Z,67.34
2017-05-22T05:01:11.430Z,66.96
2017-05-22T05:02:25.654Z,67.05
2017-05-22T05:03:39.598Z,67.15
2017-05-22T05:04:53.740Z,66.38
2017-05-22T05:06:07.901Z,65.52
2017-05-22T05:07:21.831Z,62.2
2017-05-22T05:08:35.504Z,57.3
2017-05-22T05:09:49.105Z,53.16
2017-05-22T05:11:02.736Z,49.6
2017-05-22T05:12:16.654Z,47.24
2017-05-22T05:13:30.271Z,45.94
2017-05-22T05:14:43.927Z,44.49
2017-05-22T05:15:57.651Z,44.63
2017-05-22T05:17:11.648Z,43.74
2017-05-22T05:18:25.567Z,42.6
2017-05-22T05:19:39.509Z,42.14
2017-05-22T05:20:53.495Z,41.46
2017-05-22T05:22:07.126Z,40.9
2017-05-22T05:23:21.459Z,41.29
2017-05-22T05:24:36.051Z,43.08
2017-05-22T05:25:49.742Z,45.26
2017-05-22T05:27:03.465Z,46.18
2017-05-22T05:28:17.070Z,46.76
2017-05-22T05:29:31.138Z,47.7
2017-05-22T05:30:45.058Z,48.18
2017-05-22T05:31:59.400Z,49.02
2017-05-22T05:33:13.003Z,50.25
2017-05-22T05:34:26.626Z,51.02
2017-05-22T05:35:40.260Z,51.19
2017-05-22T05:36:54.303Z,51.48
2017-05-22T05:38:08.001Z,51.48
2017-05-22T05:39:23.044Z,51.48
2017-05-22T05:40:36.660Z,51.67
2017-05-22T05:41:50.303Z,51.86
2017-05-22T05:43:04.703Z,51.76
2017-05-22T05:44:18.694Z,51.98
2017-05-22T05:45:32.686Z,52.15
2017-05-22T05:46:46.806Z,52.34
2017-05-22T05:48:00.775Z,52.83
2017-05-22T05:49:14.825Z,52.34
2017-05-22T05:50:28.842Z,52.92
2017-05-22T05:51:42.964Z,52.89
2017-05-22T05:52:56.574Z,53.02
2017-05-22T05:54:10.197Z,52.7
2017-05-22T05:55:24.139Z,52.83
2017-05-22T05:56:37.755Z,52.15
2017-05-22T05:57:51.855Z,51.96
2017-05-22T05:59:05.926Z,51.86
2017-05-22T06:00:19.607Z,51.48
2017-05-22T06:01:33.660Z,51.19
2017-05-22T06:02:48.067Z,50.45
2017-05-22T06:04:01.818Z,50.15
2017-05-22T06:05:15.518Z,51.02
2017-05-22T06:06:30.150Z,50.83
2017-05-22T06:07:44.123Z,50.25
2017-05-22T06:08:58.149Z,50.27
2017-05-22T06:10:11.948Z,49.7
2017-05-22T06:11:26.310Z,49.99
2017-05-22T06:12:39.976Z,50.06
2017-05-22T06:13:54.043Z,51.31
2017-05-22T06:15:07.812Z,51.21
2017-05-22T06:16:21.508Z,51.76
2017-05-22T06:17:35.119Z,51.76
2017-05-22T06:18:49.184Z,51.76
2017-05-22T06:20:03.349Z,52.06
2017-05-22T06:21:17.047Z,51.96
2017-05-22T06:22:30.659Z,51.76
2017-05-22T06:23:44.749Z,52.03
2017-05-22T06:24:58.726Z,51.93
2017-05-22T06:26:13.219Z,52.22
2017-05-22T06:27:27.191Z,52.32
2017-05-22T06:28:40.986Z,52.34
2017-05-22T06:29:55.071Z,51.76
2017-05-22T06:31:09.196Z,51.96
2017-05-22T06:32:23.220Z,51.96
2017-05-22T06:33:37.027Z,51.86
2017-05-22T06:34:51.141Z,51.48
2017-05-22T06:36:05.242Z,51.21
2017-05-22T06:37:19.382Z,51.29
2017-05-22T06:38:33.389Z,51.41
2017-05-22T06:39:47.330Z,51.98
2017-05-22T06:41:01.358Z,51.57
2017-05-22T06:42:15.303Z,51.76
2017-05-22T06:43:29.380Z,51.89
2017-05-22T06:44:43.763Z,51.89
2017-05-22T06:45:57.769Z,51.89
2017-05-22T06:47:12.323Z,51.7
2017-05-22T06:48:26.375Z,51.5
2017-05-22T06:49:40.035Z,51.21
2017-05-22T06:50:54.811Z,51.31
2017-05-22T06:52:08.376Z,51.31
2017-05-22T06:53:23.200Z,50.85
2017-05-22T06:54:37.250Z,51.14
2017-05-22T06:55:52.073Z,50.93
2017-05-22T06:57:06.560Z,51.05
2017-05-22T06:58:20.318Z,51.05
2017-05-22T06:59:34.398Z,51.14
2017-05-22T07:00:48.406Z,50.57
2017-05-22T07:02:02.068Z,51.05
2017-05-22T07:03:16.417Z,50.85
2017-05-22T07:04:30.152Z,51.62
2017-05-22T07:05:43.801Z,51.79
2017-05-22T07:06:57.611Z,52.56
2017-05-22T07:08:11.665Z,52.83
2017-05-22T07:09:26.408Z,51.96
2017-05-22T07:10:40.562Z,51.89
2017-05-22T07:11:54.325Z,52.06
2017-05-22T07:13:08.357Z,51.6
2017-05-22T07:14:21.960Z,51.6
2017-05-22T07:15:36.768Z,51.21
2017-05-22T07:16:50.889Z,50.83
2017-05-22T07:18:04.807Z,50.85
2017-05-22T07:19:18.441Z,50.37
2017-05-22T07:20:32.548Z,50.37
2017-05-22T07:21:46.639Z,50.57
2017-05-22T07:23:00.474Z,50.47
2017-05-22T07:24:14.858Z,50.18
2017-05-22T07:25:28.886Z,50.37
2017-05-22T07:26:42.703Z,50.27
2017-05-22T07:27:56.733Z,50.66
2017-05-22T07:29:10.349Z,50.85
2017-05-22T07:30:24.392Z,50.66
2017-05-22T07:31:38.003Z,49.6
2017-05-22T07:32:51.856Z,50.27
2017-05-22T07:34:06.157Z,50.27
2017-05-22T07:35:20.205Z,50.47
2017-05-22T07:36:33.866Z,50.95
2017-05-22T07:37:47.661Z,51.82
2017-05-22T07:39:01.630Z,51.7
2017-05-22T07:40:15.964Z,51.98
2017-05-22T07:41:29.669Z,51.98
2017-05-22T07:42:43.431Z,51.5
2017-05-22T07:43:57.755Z,51.5
2017-05-22T07:45:11.473Z,51.6
2017-05-22T07:46:25.766Z,51.98
2017-05-22T07:47:40.214Z,52.92
2017-05-22T07:48:54.369Z,52.95
2017-05-22T07:50:08.010Z,53.69
2017-05-22T07:51:22.386Z,52.92
2017-05-22T07:52:36.508Z,52.83
2017-05-22T07:53:50.814Z,52.73
2017-05-22T07:55:05.050Z,53.11
2017-05-22T07:56:19.818Z,53.21
2017-05-22T07:57:33.431Z,53.59
2017-05-22T07:58:47.517Z,53.33
2017-05-22T08:00:01.191Z,53.78
2017-05-22T08:01:14.860Z,54.56
2017-05-22T08:02:28.894Z,54.39
2017-05-22T08:03:43.234Z,54.75
2017-05-22T08:04:59.261Z,55.04
2017-05-22T08:06:14.327Z,54.2
2017-05-22T08:07:28.066Z,54.1
2017-05-22T08:08:42.647Z,53.72
2017-05-22T08:09:57.027Z,53.33
2017-05-22T08:11:11.335Z,53.17
2017-05-22T08:12:25.618Z,52.3
2017-05-22T08:13:40.380Z,52.59
2017-05-22T08:14:54.815Z,52.2
2017-05-22T08:16:08.590Z,51.92
2017-05-22T08:17:23.117Z,52.01
2017-05-22T08:18:40.102Z,51.62
2017-05-22T08:19:54.238Z,51.43
2017-05-22T08:21:08.266Z,51.05
2017-05-22T08:22:22.404Z,51.62
2017-05-22T08:23:37.429Z,52.95
2017-05-22T08:24:51.286Z,52.37
2017-05-22T08:26:05.175Z,51.21
2017-05-22T08:27:19.150Z,51.6
2017-05-22T08:28:32.793Z,50.93
2017-05-22T08:29:46.889Z,51.12
2017-05-22T08:31:01.152Z,50.93
2017-05-22T08:32:15.491Z,50.93
2017-05-22T08:33:29.248Z,50.45
2017-05-22T08:34:43.489Z,50.15
2017-05-22T08:35:58.209Z,49.79
2017-05-22T08:37:13.100Z,49.99
2017-05-22T08:38:27.267Z,49.7
2017-05-22T08:39:41.117Z,49.41
2017-05-22T08:40:55.104Z,49.79
2017-05-22T08:42:10.546Z,49.32
2017-05-22T08:43:24.450Z,49.51
2017-05-22T08:44:38.705Z,49.99
2017-05-22T08:45:54.086Z,50.47
2017-05-22T08:47:12.604Z,50.18
2017-05-22T08:48:28.205Z,50.25
2017-05-22T08:49:47.851Z,50.45
2017-05-22T08:51:05.879Z,50.27
2017-05-22T08:52:22.940Z,50.35
2017-05-22T08:53:41.263Z,49.1
2017-05-22T08:54:56.886Z,48.9
2017-05-22T08:56:17.175Z,49.1
2017-05-22T08:57:33.444Z,49.68
2017-05-22T08:58:52.944Z,49.48
2017-05-22T09:00:10.494Z,50.25
2017-05-22T09:01:30.137Z,50.35
2017-05-22T09:02:46.135Z,50.15
2017-05-22T09:04:01.075Z,50.25
2017-05-22T09:05:19.002Z,49.96
2017-05-22T09:06:38.267Z,50.35
2017-05-22T09:07:52.892Z,49.38
2017-05-22T09:09:07.847Z,48.9
2017-05-22T09:10:23.252Z,49.38
2017-05-22T09:11:37.054Z,49.77
2017-05-22T09:12:51.512Z,49
2017-05-22T09:14:05.989Z,48.9
2017-05-22T09:15:20.362Z,49.29
2017-05-22T09:16:34.067Z,49.99
2017-05-22T09:17:47.823Z,49.96
2017-05-22T09:20:08.808Z,49.58
2017-05-22T09:21:24.439Z,49.6
2017-05-22T09:22:38.450Z,48.71
2017-05-22T09:23:52.444Z,48.33
2017-05-22T09:25:06.391Z,48.74
2017-05-22T09:26:20.115Z,49.48
2017-05-22T09:27:33.763Z,49.96
2017-05-22T09:28:47.850Z,49.87
2017-05-22T09:30:08.131Z,49.68
2017-05-22T09:31:22.516Z,48.61
2017-05-22T09:32:36.204Z,48.93
2017-05-22T09:33:50.414Z,48.44
2017-05-22T09:35:04.374Z,48.06
2017-05-22T09:36:18.535Z,47.8
2017-05-22T09:37:32.561Z,46.93
2017-05-22T09:38:46.310Z,46.93
2017-05-22T09:40:00.873Z,46.35
2017-05-22T09:41:15.691Z,46.28
2017-05-22T09:42:29.516Z,46.76
2017-05-22T09:43:43.872Z,46.83
2017-05-22T09:44:57.537Z,47.12
2017-05-22T09:46:11.278Z,47.22
2017-05-22T09:47:25.109Z,47.22
2017-05-22T09:48:38.807Z,46.73
2017-05-22T09:49:52.873Z,47.51
2017-05-22T09:51:07.292Z,47.14
2017-05-22T09:52:25.059Z,46.76
2017-05-22T09:53:38.762Z,46.37
2017-05-22T09:54:52.423Z,46.56
2017-05-22T09:56:06.351Z,46.2
2017-05-22T09:57:20.651Z,46.2
2017-05-22T09:58:34.352Z,46.11
2017-05-22T09:59:48.540Z,46.49
2017-05-22T10:01:03.253Z,45.84
2017-05-22T10:02:17.182Z,44.78
2017-05-22T10:03:31.165Z,44.6
2017-05-22T10:04:45.202Z,44.9
2017-05-22T10:05:59.203Z,44.12
2017-05-22T10:07:13.021Z,44.03
2017-05-22T10:08:27.261Z,44.22
2017-05-22T10:09:40.919Z,44.12
2017-05-22T10:10:54.650Z,44.49
2017-05-22T10:12:08.322Z,45.84
2017-05-22T10:13:22.605Z,45.45
2017-05-22T10:14:36.660Z,45.45
2017-05-22T10:15:50.998Z,44.9
2017-05-22T10:17:04.705Z,45.17
2017-05-22T10:18:18.383Z,45.94
2017-05-22T10:19:32.283Z,46.81
2017-05-22T10:20:46.026Z,47.38
2017-05-22T10:21:59.697Z,47.29
2017-05-22T10:23:16.725Z,47.48
2017-05-22T10:24:30.278Z,47.77
2017-05-22T10:25:43.923Z,46.88
2017-05-22T10:26:57.618Z,46.78
2017-05-22T10:28:11.993Z,47.17
2017-05-22T10:29:25.677Z,47.36
2017-05-22T10:30:39.642Z,47.85
2017-05-22T10:31:53.971Z,47.94
2017-05-22T10:33:07.619Z,48.23
2017-05-22T10:34:21.268Z,47.85
2017-05-22T10:35:35.231Z,48.13
2017-05-22T10:36:48.937Z,48.13
2017-05-22T10:38:02.550Z,48.23
2017-05-22T10:39:16.565Z,47.94
2017-05-22T10:40:30.525Z,48.13
2017-05-22T10:41:44.533Z,48.4
2017-05-22T10:42:58.229Z,47.27
2017-05-22T10:44:12.213Z,48.23
2017-05-22T10:45:26.176Z,47.24
2017-05-22T10:46:40.139Z,47.92
2017-05-22T10:47:53.740Z,48.88
2017-05-22T10:49:07.710Z,49.75
2017-05-22T10:50:22.271Z,50.13
2017-05-22T10:51:36.255Z,49.65
2017-05-22T10:52:49.886Z,50.32
2017-05-22T10:54:03.920Z,49.55
2017-05-22T10:55:18.176Z,48.88
2017-05-22T10:56:32.453Z,48.69
2017-05-22T10:57:46.535Z,48.4
2017-05-22T10:59:00.638Z,48.33
2017-05-22T11:00:14.792Z,48.42
2017-05-22T11:01:28.482Z,48.33
2017-05-22T11:02:42.726Z,48.33
2017-05-22T11:03:56.967Z,48.42
2017-05-22T11:05:10.607Z,48.23
2017-05-22T11:06:24.194Z,47.85
2017-05-22T11:07:38.135Z,47.65
2017-05-22T11:08:52.264Z,47.65
2017-05-22T11:10:05.945Z,47.85
2017-05-22T11:11:19.692Z,48.03
2017-05-22T11:12:33.401Z,47.36
2017-05-22T11:13:47.005Z,47.17
2017-05-22T11:15:01.418Z,46.69
2017-05-22T11:16:16.554Z,46.97
2017-05-22T11:17:30.794Z,47.07
2017-05-22T11:18:44.416Z,46.4
2017-05-22T11:19:58.820Z,46.03
2017-05-22T11:21:13.110Z,45.53
2017-05-22T11:22:26.919Z,46.01
2017-05-22T11:23:40.576Z,44.76
2017-05-22T11:24:54.221Z,44.66
2017-05-22T11:26:07.947Z,43.7
2017-05-22T11:27:21.990Z,43.41
2017-05-22T11:28:35.872Z,43.24
2017-05-22T11:29:49.887Z,44.2
2017-05-22T11:31:18.386Z,43.6
2017-05-22T11:32:32.060Z,43.02
2017-05-22T11:33:46.048Z,42.15
2017-05-22T11:34:59.766Z,42.73
2017-05-22T11:36:13.838Z,42.73
2017-05-22T11:37:27.866Z,41.48
2017-05-22T11:38:41.481Z,41.09
2017-05-22T11:39:55.821Z,40.9
2017-05-22T11:41:10.832Z,41.09
2017-05-22T11:42:24.589Z,41.09
2017-05-22T11:43:38.367Z,41.38
2017-05-22T11:44:52.106Z,39.86
2017-05-22T11:46:06.509Z,39.57
2017-05-22T11:47:20.416Z,39.76
2017-05-22T11:48:34.506Z,41.02
2017-05-22T11:49:48.147Z,41.13
2017-05-22T11:51:01.793Z,40.84
2017-05-22T11:52:15.764Z,39.97
2017-05-22T11:53:29.455Z,40.65
2017-05-22T11:54:43.495Z,41.33
2017-05-22T11:55:57.113Z,41.4
2017-05-22T11:57:10.967Z,41.5
2017-05-22T11:58:25.039Z,41.57
2017-05-22T11:59:38.628Z,41.48
2017-05-22T12:00:52.846Z,41.77
2017-05-22T12:02:07.466Z,41.96
2017-05-22T12:03:23.233Z,41.77
2017-05-22T12:04:37.825Z,41.11
2017-05-22T12:05:52.219Z,41.2
2017-05-22T12:07:05.894Z,41.11
2017-05-22T12:08:20.577Z,40.72
2017-05-22T12:09:34.591Z,41.13
2017-05-22T12:10:48.664Z,41.52
2017-05-22T12:12:02.450Z,41.61
2017-05-22T12:13:16.484Z,42.1
2017-05-22T12:14:30.472Z,41.15
2017-05-22T12:15:44.202Z,41.05
2017-05-22T12:16:58.455Z,41.54
2017-05-22T12:18:12.782Z,41.35
2017-05-22T12:19:27.503Z,39.99
2017-05-22T12:20:41.564Z,39.9
2017-05-22T12:21:55.951Z,39.99
2017-05-22T12:23:10.574Z,39.72
2017-05-22T12:24:24.232Z,39.53
2017-05-22T12:25:38.163Z,39.72
2017-05-22T12:26:52.492Z,39.53
2017-05-22T12:28:06.063Z,38.66
2017-05-22T12:29:20.647Z,39.62
2017-05-22T12:30:34.942Z,40.01
2017-05-22T12:31:48.919Z,40.69
2017-05-22T12:33:03.219Z,40.4
2017-05-22T12:34:16.970Z,40.11
2017-05-22T12:35:30.896Z,40.09
2017-05-22T12:36:45.257Z,40.67
2017-05-22T12:37:59.363Z,40.5
2017-05-22T12:39:13.321Z,40.86
2017-05-22T12:40:27.972Z,39.82
2017-05-22T12:41:42.011Z,39.53
2017-05-22T12:42:55.696Z,39.34
2017-05-22T12:44:09.323Z,39.62
2017-05-22T12:45:22.938Z,39.53
2017-05-22T12:46:36.579Z,39.82
2017-05-22T12:47:51.198Z,39.74
2017-05-22T12:49:05.030Z,39.55
2017-05-22T12:50:18.639Z,39.36
2017-05-22T12:51:32.294Z,38.58
2017-05-22T12:52:46.692Z,38.68
2017-05-22T12:54:00.959Z,37.9
2017-05-22T12:55:14.718Z,37.71
2017-05-22T12:56:28.629Z,36.74
2017-05-22T12:57:42.355Z,37.04
2017-05-22T12:58:56.062Z,37.9
2017-05-22T13:00:10.671Z,37.71
2017-05-22T13:01:25.870Z,38.2
2017-05-22T13:02:39.485Z,38.76
2017-05-22T13:03:53.379Z,38.76
2017-05-22T13:05:07.053Z,38.18
2017-05-22T13:06:21.083Z,38.28
2017-05-22T13:07:34.812Z,38.06
2017-05-22T13:08:49.194Z,38.37
2017-05-22T13:10:02.783Z,37.79
2017-05-22T13:11:16.761Z,38.25
2017-05-22T13:12:30.798Z,38.28
2017-05-22T13:13:44.463Z,38.37
2017-05-22T13:14:58.184Z,37.4
2017-05-22T13:16:12.158Z,37.02
2017-05-22T13:17:25.867Z,36.84
2017-05-22T13:18:40.061Z,36.94
2017-05-22T13:19:53.806Z,37.23
2017-05-22T13:21:08.141Z,37.52
2017-05-22T13:22:22.128Z,37.62
2017-05-22T13:23:42.373Z,37.9
2017-05-22T13:24:56.126Z,38.68
2017-05-22T13:26:10.725Z,38.2
2017-05-22T13:27:25.149Z,37.52
2017-05-22T13:28:39.567Z,37.71
2017-05-22T13:29:53.640Z,37.32
2017-05-22T13:31:07.657Z,37.04
2017-05-22T13:32:21.611Z,36.94
2017-05-22T13:33:35.403Z,37.23
2017-05-22T13:34:49.455Z,37.32
2017-05-22T13:36:03.827Z,37.23
2017-05-22T13:37:17.823Z,37.13
2017-05-22T13:38:31.626Z,36.96
2017-05-22T13:39:45.280Z,37.73
2017-05-22T13:40:59.628Z,37.54
2017-05-22T13:42:13.363Z,37.15
2017-05-22T13:43:27.806Z,36.47
2017-05-22T13:44:41.502Z,36.28
2017-05-22T13:45:55.203Z,36.76
2017-05-22T13:47:08.955Z,36.57
2017-05-22T13:48:22.581Z,36.38
2017-05-22T13:49:36.566Z,35.8
2017-05-22T13:50:50.176Z,36.76
2017-05-22T13:52:03.833Z,37.44
2017-05-22T13:53:18.171Z,37.54
2017-05-22T13:54:31.930Z,38.2
2017-05-22T13:55:46.644Z,38.1
2017-05-22T13:57:00.323Z,37.32
2017-05-22T13:58:15.119Z,37.32
2017-05-22T13:59:29.234Z,38.39
2017-05-22T14:00:42.945Z,39.26
2017-05-22T14:01:57.815Z,39.45
2017-05-22T14:03:12.140Z,39.26
2017-05-22T14:04:25.798Z,39.26
2017-05-22T14:05:39.429Z,40.23
2017-05-22T14:06:53.902Z,40.81
2017-05-22T14:08:08.027Z,41.29
2017-05-22T14:09:22.369Z,40.03
2017-05-22T14:10:36.050Z,40.71
2017-05-22T14:11:49.662Z,40.42
2017-05-22T14:13:03.368Z,39.74
2017-05-22T14:14:17.694Z,39.55
2017-05-22T14:15:32.465Z,38.79
2017-05-22T14:16:46.832Z,39.09
2017-05-22T14:18:00.808Z,39.37
2017-05-22T14:19:14.760Z,39.28
2017-05-22T14:20:29.061Z,39.37
2017-05-22T14:21:42.836Z,39.39
2017-05-22T14:22:56.464Z,39.29
2017-05-22T14:24:10.781Z,39.28
2017-05-22T14:25:24.741Z,38.89
2017-05-22T14:26:39.541Z,38.5
2017-05-22T14:27:53.706Z,39.49
2017-05-22T14:29:08.359Z,39.88
2017-05-22T14:30:22.406Z,38.71
2017-05-22T14:31:36.502Z,38.45
2017-05-22T14:32:50.529Z,38.06
2017-05-22T14:34:04.247Z,37.09
2017-05-22T14:35:18.676Z,37.19
2017-05-22T14:36:32.655Z,37.28
2017-05-22T14:37:46.281Z,37.19
2017-05-22T14:39:00.427Z,36.8
2017-05-22T14:40:14.886Z,37.67
2017-05-22T14:41:28.504Z,38.07
2017-05-22T14:45:32.988Z,36.33
2017-05-22T14:46:50.385Z,35.85
2017-05-22T14:48:07.306Z,35.85
2017-05-22T14:49:21.610Z,35.15
2017-05-22T14:50:36.609Z,34.96
2017-05-22T14:51:52.634Z,36.02
2017-05-22T14:53:08.297Z,35.44
2017-05-22T14:54:23.753Z,35.56
2017-05-22T14:55:41.019Z,34.59
2017-05-22T14:56:56.461Z,35.66
2017-05-22T14:58:14.453Z,36.14
2017-05-22T14:59:34.568Z,35.94
2017-05-22T15:00:54.212Z,34.59
2017-05-22T15:02:10.781Z,34.11
2017-05-22T15:03:24.838Z,32.84
2017-05-22T15:04:38.666Z,33.42
2017-05-22T15:05:53.272Z,33.81
2017-05-22T15:07:06.937Z,33.72
2017-05-22T15:08:24.119Z,33.52
2017-05-22T15:09:38.813Z,33.81
2017-05-22T15:10:52.466Z,33.44
2017-05-22T15:12:06.663Z,33.42
2017-05-22T15:13:20.979Z,33.62
2017-05-22T15:14:36.889Z,33.81
2017-05-22T15:15:52.832Z,34.2
2017-05-22T15:17:06.857Z,34.86
2017-05-22T15:18:20.891Z,35.35
2017-05-22T15:19:34.635Z,34.19
2017-05-22T15:20:49.018Z,33.89
2017-05-22T15:22:03.449Z,33.31
2017-05-22T15:23:18.437Z,33.02
2017-05-22T15:24:32.399Z,33.02
2017-05-22T15:25:46.212Z,32.82
2017-05-22T15:26:59.926Z,32.73
2017-05-22T15:28:14.066Z,32.84
2017-05-22T15:29:27.871Z,32.82
2017-05-22T15:30:42.372Z,33.6
2017-05-22T15:31:56.232Z,32.06
2017-05-22T15:33:11.066Z,32.44
2017-05-22T15:34:25.118Z,32.44
2017-05-22T15:35:39.125Z,32.91
2017-05-22T15:36:52.867Z,32.71
2017-05-22T15:38:06.645Z,33.29
2017-05-22T15:39:20.435Z,33.59
2017-05-22T15:40:34.453Z,34.07
2017-05-22T15:41:48.726Z,33.89
2017-05-22T15:43:02.702Z,34.17
2017-05-22T15:44:16.431Z,34.27
2017-05-22T15:45:30.509Z,34.45
2017-05-22T15:46:44.526Z,34.73
2017-05-22T15:47:58.580Z,35.12
2017-05-22T15:49:12.342Z,35.89
2017-05-22T15:50:26.992Z,35.68
2017-05-22T15:51:40.709Z,35
2017-05-22T15:52:54.677Z,35.29
2017-05-22T15:54:08.562Z,36.55
2017-05-22T15:55:22.360Z,36.65
2017-05-22T15:56:36.105Z,36.07
2017-05-22T15:57:49.709Z,35.39
2017-05-22T15:59:03.952Z,35.2
2017-05-22T16:00:17.602Z,35.78
2017-05-22T16:01:31.613Z,35.76
2017-05-22T16:02:46.747Z,36.15